METAR

METAR LDZA 191230Z 04005KT 010V080 9999 OVC048 02/M04 Q1019 NOSIG =
METAR LDSP 191230Z 06005KT 360V100 9999 FEW030 BKN045 09/07 Q1013 NOSIG=
METAR LDDU 191230Z 07006KT 050V110 9999 -RA FEW030 09/08 Q1014 RERA NOSIG =
METAR LDZD 191230Z 06005KT 350V100 CAVOK 09/00 Q1014 NOSIG =
METAR LDPL 191230Z 03006KT 340V090 CAVOK 08/M01 Q1015 NOSIG=
METAR LDOS 191230Z 10006KT CAVOK 02/M00 Q1019=
METAR LDRI 191230Z 04011KT 9999 FEW030 06/M03 Q1016=

TAF

TAF LDZA 191125Z 1912/2012 05006KT 9999 BKN045
                 TX02/1913Z TNM02/2007Z
    PROB40 TEMPO 1912/2006 3000 -SN OVC013
           BECMG 1917/1919 VRB02KT=
TAF LDSP 191130Z 1912/2012 08006KT 9999 SCT040
                 TX10/1914Z TN04/2004Z
           TEMPO 1912/1922 5000 RA
    PROB30 TEMPO 1912/1922 4000 TSRA FEW025CB BKN030=
TAF LDDU 191130Z 1912/2012 11012KT 9999 SCT020
                 TX12/1912Z TN07/2005Z
    PROB40 TEMPO 1914/2012 RA
    PROB30 TEMPO 1915/2007 4000 TSRA SCT010 FEW015CB BKN020
           BECMG 1916/1918 09008KT=
TAF LDZD 191130Z 1912/2012 07008KT 9999 SCT035
                 TX10/1912Z TN00/2005Z
    PROB30 TEMPO 1912/1916 RA=
TAF LDPL 191125Z 1912/2012 07008KT 9999 FEW050
                 TX08/1912Z TN02/2006Z
           BECMG 1919/1921 VRB02KT=
TAF COR LDOS 191126Z 1912/2012 06007KT 9999 SCT030
                     TX03/1913Z TNM01/2007Z
               TEMPO 1912/2012 2000 -SN OVC008
        PROB40 TEMPO 1922/2006 0400 SN OVC003
               BECMG 2004/2006 29007KT=
TAF LDRI 191125Z 1912/2012 06010KT 9999 SCT050
                 TX07/1912Z TN03/2006Z
           BECMG 1912/1914 06006KT=

SIGMET

AIRMET

LDZO AIRMET 14 VALID 191000/191400 LDZA-
LDZO ZAGREB FIR MT OBSC OBS WI N4541 E01435 - N4552 E01536 - N4244
E01803 - N4304 E01653 - N4436 E01501 - N4533 E01426 - N4541 E01435
ABV 2000FT STNR NC=
LDZO AIRMET 15 VALID 191000/191400 LDZA-
LDZO ZAGREB FIR MOD TURB FCST WI N4416 E01611 - N4408 E01506 - N4533
E01324 - N4539 E01435 - N4416 E01611 SFC/5000FT STNR WKN=
LDZO AIRMET 16 VALID 191000/191400 LDZA-
LDZO ZAGREB FIR MOD ICE FCST NE OF LINE N4402 E01626 - N4426 E01514
- N4532 E01428 ABV 1000FT STNR NC=
LDZO AIRMET 17 VALID 191200/191400 LDZA-
LDZO ZAGREB FIR ISOL TS OBS SE OF LINE N4337 E01657 - N4319 E01614 -
N4248 E01540 TOP ABV FL100 STNR WKN=

Napomena

Ukoliko se brzina i smjer vjetra ne mogu odrediti zbog privremenog kvara sustava/indikatora,
informacija o vjetru u METAR izvješću bit će prikazana kao "/////KT".

 

Disclaimer

 

In case of temporary system/sensor failure, wind speed and direction data will be represented as "/////KT" in METAR report.

 

         

      Politika MET podataka